createdAt,value
2019-06-27T00:03:26.088Z,102081.44
2019-06-27T00:05:54.361Z,102079.31
2019-06-27T00:08:22.689Z,102081.86
2019-06-27T00:10:50.972Z,102078.07
2019-06-27T00:13:19.258Z,102082.41
2019-06-27T00:15:47.546Z,102080.50
2019-06-27T00:18:15.857Z,102083.19
2019-06-27T00:20:44.147Z,102070.77
2019-06-27T00:23:12.429Z,102070.13
2019-06-27T00:25:40.716Z,102076.80
2019-06-27T00:28:08.999Z,102072.62
2019-06-27T00:30:37.292Z,102065.20
2019-06-27T00:33:05.588Z,102072.45
2019-06-27T00:35:33.887Z,102068.59
2019-06-27T00:38:02.197Z,102068.23
2019-06-27T00:40:30.443Z,102071.99
2019-06-27T00:42:58.737Z,102066.50
2019-06-27T00:45:27.084Z,102061.86
2019-06-27T00:47:55.385Z,102067.43
2019-06-27T00:50:23.739Z,102067.43
2019-06-27T00:52:52.031Z,102066.72
2019-06-27T00:55:20.298Z,102071.45
2019-06-27T00:57:48.587Z,102071.64
2019-06-27T01:00:50.433Z,102073.78
2019-06-27T01:03:18.735Z,102071.39
2019-06-27T01:05:47.009Z,102073.41
2019-06-27T01:08:15.295Z,102081.06
2019-06-27T01:10:43.566Z,102086.61
2019-06-27T01:13:11.835Z,102097.78
2019-06-27T01:15:40.151Z,102096.14
2019-06-27T01:18:08.406Z,102094.67
2019-06-27T01:20:36.703Z,102086.69
2019-06-27T01:23:04.987Z,102089.77
2019-06-27T01:25:33.269Z,102102.88
2019-06-27T01:28:01.665Z,102090.72
2019-06-27T01:30:29.908Z,102099.97
2019-06-27T01:32:58.239Z,102101.97
2019-06-27T01:35:26.515Z,102102.69
2019-06-27T01:37:54.788Z,102102.21
2019-06-27T01:40:23.094Z,102106.30
2019-06-27T01:42:51.393Z,102111.67
2019-06-27T01:45:53.560Z,102108.13
2019-06-27T01:48:21.852Z,102105.19
2019-06-27T01:50:50.147Z,102103.33
2019-06-27T01:53:18.411Z,102105.55
2019-06-27T01:55:46.701Z,102106.15
2019-06-27T01:58:14.972Z,102103.26
2019-06-27T02:00:43.305Z,102105.09
2019-06-27T02:03:11.712Z,102102.41
2019-06-27T02:05:39.989Z,102092.61
2019-06-27T02:08:08.286Z,102095.80
2019-06-27T02:10:36.576Z,102093.01
2019-06-27T02:13:05.093Z,102092.05
2019-06-27T02:15:33.395Z,102090.25
2019-06-27T02:18:01.682Z,102092.23
2019-06-27T02:20:30.040Z,102090.13
2019-06-27T02:22:58.337Z,102093.27
2019-06-27T02:26:00.210Z,102101.02
2019-06-27T02:28:28.470Z,102100.50
2019-06-27T02:30:56.734Z,102090.38
2019-06-27T02:33:25.018Z,102091.11
2019-06-27T02:35:53.293Z,102089.17
2019-06-27T02:38:21.595Z,102086.90
2019-06-27T02:40:49.870Z,102089.77
2019-06-27T02:43:18.144Z,102094.75
2019-06-27T02:45:46.429Z,102095.08
2019-06-27T02:48:14.701Z,102098.83
2019-06-27T02:50:42.998Z,102094.81
2019-06-27T02:53:11.270Z,102093.96
2019-06-27T02:55:39.549Z,102086.70
2019-06-27T02:58:27.941Z,102088.91
2019-06-27T03:00:37.825Z,102089.06
2019-06-27T03:03:06.098Z,102088.84
2019-06-27T03:05:34.394Z,102081.94
2019-06-27T03:08:02.674Z,102087.36
2019-06-27T03:10:50.307Z,102086.17
2019-06-27T03:13:18.677Z,102086.17
2019-06-27T03:15:46.959Z,102080.06
2019-06-27T03:18:15.222Z,102081.19
2019-06-27T03:21:23.563Z,102085.62
2019-06-27T03:23:51.849Z,102090.84
2019-06-27T03:26:20.127Z,102089.43
2019-06-27T03:28:53.231Z,102091.33
2019-06-27T03:31:18.437Z,102091.01
2019-06-27T03:33:46.697Z,102095.30
2019-06-27T03:36:14.983Z,102094.03
2019-06-27T03:38:43.257Z,102097.61
2019-06-27T03:41:11.538Z,102093.53
2019-06-27T03:43:40.001Z,102096.42
2019-06-27T03:46:08.268Z,102093.13
2019-06-27T03:48:36.566Z,102091.91
2019-06-27T03:51:04.877Z,102095.61
2019-06-27T03:53:33.124Z,102093.98
2019-06-27T03:56:01.406Z,102090.92
2019-06-27T03:58:29.681Z,102095.58
2019-06-27T04:00:57.958Z,102100.80
2019-06-27T04:03:26.246Z,102095.31
2019-06-27T04:05:54.522Z,102100.44
2019-06-27T04:08:22.806Z,102103.98
2019-06-27T04:10:51.085Z,102097.03
2019-06-27T04:13:19.361Z,102096.83
2019-06-27T04:15:47.641Z,102101.88
2019-06-27T04:21:17.508Z,102112.47
2019-06-27T04:23:45.786Z,102112.93
2019-06-27T04:26:14.064Z,102098.39
2019-06-27T04:28:42.340Z,102104.27
2019-06-27T04:31:10.613Z,102105.84
2019-06-27T04:33:38.883Z,102101.23
2019-06-27T04:36:07.161Z,102106.77
2019-06-27T04:38:35.436Z,102108.20
2019-06-27T04:41:03.942Z,102101.09
2019-06-27T04:43:32.198Z,102109.05
2019-06-27T04:46:00.482Z,102107.98
2019-06-27T04:48:28.778Z,102105.53
2019-06-27T04:50:57.056Z,102105.35
2019-06-27T04:53:25.352Z,102105.35
2019-06-27T04:55:53.635Z,102110.15
2019-06-27T04:58:21.927Z,102108.58
2019-06-27T05:00:50.210Z,102108.70
2019-06-27T05:03:18.492Z,102116.34
2019-06-27T05:05:46.770Z,102119.92
2019-06-27T05:08:15.187Z,102116.44
2019-06-27T05:13:44.972Z,102123.52
2019-06-27T05:16:32.843Z,102121.78
2019-06-27T05:19:01.139Z,102121.78
2019-06-27T05:21:29.418Z,102119.69
2019-06-27T05:23:57.707Z,102120.07
2019-06-27T05:26:26.032Z,102120.70
2019-06-27T05:28:54.300Z,102123.91
2019-06-27T05:31:22.750Z,102121.17
2019-06-27T05:33:51.052Z,102127.79
2019-06-27T05:36:19.332Z,102132.09
2019-06-27T05:38:47.606Z,102127.07
2019-06-27T05:41:15.907Z,102139.25
2019-06-27T05:43:44.182Z,102143.97
2019-06-27T05:46:12.449Z,102144.69
2019-06-27T05:48:40.740Z,102147.73
2019-06-27T05:51:09.008Z,102140.98
2019-06-27T05:53:37.903Z,102139.45
2019-06-27T05:56:06.186Z,102137.45
2019-06-27T05:58:34.466Z,102143.33
2019-06-27T06:01:02.751Z,102142.23
2019-06-27T06:03:31.036Z,102138.98
2019-06-27T06:05:59.328Z,102149.92
2019-06-27T06:08:27.601Z,102143.97
2019-06-27T06:10:55.886Z,102143.28
2019-06-27T06:13:24.241Z,102144.83
2019-06-27T06:15:52.524Z,102147.45
2019-06-27T06:18:20.836Z,102149.48
2019-06-27T06:20:49.154Z,102146.83
2019-06-27T06:23:17.421Z,102143.11
2019-06-27T06:25:45.704Z,102144.23
2019-06-27T06:28:13.991Z,102145.58
2019-06-27T06:30:44.819Z,102142.91
2019-06-27T06:33:12.306Z,102134.63
2019-06-27T06:35:40.600Z,102139.36
2019-06-27T06:38:08.898Z,102137.19
2019-06-27T06:40:37.174Z,102146.98
2019-06-27T06:43:05.560Z,102143.16
2019-06-27T06:45:33.878Z,102139.17
2019-06-27T06:48:02.155Z,102143.24
2019-06-27T06:50:30.423Z,102137.27
2019-06-27T06:52:58.729Z,102152.25
2019-06-27T06:55:27.022Z,102153.32
2019-06-27T06:57:55.317Z,102150.09
2019-06-27T07:00:23.660Z,102142.36
2019-06-27T07:02:51.942Z,102154.56
2019-06-27T07:05:20.222Z,102147.11
2019-06-27T07:07:48.503Z,102155.12
2019-06-27T07:10:16.974Z,102152.52
2019-06-27T07:12:45.267Z,102154.73
2019-06-27T07:18:15.166Z,102150.70
2019-06-27T07:20:43.943Z,102157.95
2019-06-27T07:23:12.227Z,102157.52
2019-06-27T07:25:40.541Z,102161.64
2019-06-27T07:28:08.797Z,102162.83
2019-06-27T07:30:37.075Z,102166.81
2019-06-27T07:33:05.365Z,102172.77
2019-06-27T07:35:33.661Z,102175.91
2019-06-27T07:38:01.936Z,102162.42
2019-06-27T07:40:30.221Z,102163.91
2019-06-27T07:42:58.497Z,102169.48
2019-06-27T07:45:26.793Z,102167.14
2019-06-27T07:47:55.053Z,102171.61
2019-06-27T07:50:23.336Z,102174.38
2019-06-27T07:52:51.627Z,102169.70
2019-06-27T07:55:59.925Z,102171.45
2019-06-27T07:58:28.207Z,102167.23
2019-06-27T08:00:56.481Z,102171.44
2019-06-27T08:03:24.755Z,102174.25
2019-06-27T08:05:53.033Z,102176.95
2019-06-27T08:08:21.295Z,102175.80
2019-06-27T08:10:49.582Z,102171.23
2019-06-27T08:13:17.865Z,102179.67
2019-06-27T08:16:26.422Z,102171.36
2019-06-27T08:18:54.697Z,102173.75
2019-06-27T08:21:22.997Z,102180.61
2019-06-27T08:23:51.294Z,102180.52
2019-06-27T08:26:19.569Z,102189.87
2019-06-27T08:28:47.839Z,102183.03
2019-06-27T08:31:16.111Z,102189.73
2019-06-27T08:33:44.415Z,102187.30
2019-06-27T08:36:12.690Z,102195.70
2019-06-27T08:38:40.979Z,102194.62
2019-06-27T08:41:09.243Z,102192.11
2019-06-27T08:43:37.775Z,102195.63
2019-06-27T08:46:06.042Z,102187.89
2019-06-27T08:48:34.338Z,102199.63
2019-06-27T08:51:02.594Z,102193.31
2019-06-27T08:53:30.873Z,102195.60
2019-06-27T08:55:59.151Z,102192.59
2019-06-27T08:58:27.427Z,102198.22
2019-06-27T09:00:55.707Z,102204.05
2019-06-27T09:03:24.010Z,102203.55
2019-06-27T09:05:52.268Z,102198.98
2019-06-27T09:08:20.575Z,102208.44
2019-06-27T09:10:48.859Z,102197.95
2019-06-27T09:13:17.149Z,102204.86
2019-06-27T09:15:45.435Z,102215.87
2019-06-27T09:18:13.708Z,102203.80
2019-06-27T09:20:41.977Z,102199.80
2019-06-27T09:23:10.265Z,102198.10
2019-06-27T09:25:38.535Z,102199.23
2019-06-27T09:28:06.814Z,102206.44
2019-06-27T09:30:35.087Z,102198.00
2019-06-27T09:33:03.361Z,102193.84
2019-06-27T09:35:31.628Z,102191.77
2019-06-27T09:37:59.924Z,102193.59
2019-06-27T09:40:28.197Z,102194.45
2019-06-27T09:42:56.487Z,102189.42
2019-06-27T09:45:24.821Z,102195.94
2019-06-27T09:47:53.097Z,102193.88
2019-06-27T09:50:21.852Z,102197.24
2019-06-27T09:52:51.527Z,102201.45
2019-06-27T09:55:19.798Z,102201.70
2019-06-27T09:57:48.084Z,102200.35
2019-06-27T10:00:16.529Z,102205.65
2019-06-27T10:02:44.800Z,102191.98
2019-06-27T10:05:53.136Z,102190.98
2019-06-27T10:08:21.409Z,102189.09
2019-06-27T10:10:49.691Z,102192.44
2019-06-27T10:13:17.970Z,102186.89
2019-06-27T10:15:46.262Z,102189.31
2019-06-27T10:18:14.522Z,102193.46
2019-06-27T10:20:42.807Z,102191.93
2019-06-27T10:23:11.085Z,102193.65
2019-06-27T10:25:39.356Z,102197.14
2019-06-27T10:28:07.632Z,102196.95
2019-06-27T10:30:35.893Z,102187.98
2019-06-27T10:33:04.195Z,102194.97
2019-06-27T10:35:32.483Z,102191.08
2019-06-27T10:38:01.018Z,102189.35
2019-06-27T10:40:29.301Z,102178.39
2019-06-27T10:42:57.575Z,102186.39
2019-06-27T10:45:25.861Z,102185.25
2019-06-27T10:47:54.129Z,102187.56
2019-06-27T10:50:22.402Z,102188.03
2019-06-27T10:52:50.671Z,102193.16
2019-06-27T10:55:18.957Z,102183.30
2019-06-27T10:57:47.220Z,102193.44
2019-06-27T11:00:55.526Z,102186.48
2019-06-27T11:03:23.801Z,102185.44
2019-06-27T11:05:52.091Z,102178.45
2019-06-27T11:08:20.370Z,102180.40
2019-06-27T11:10:48.634Z,102174.86
2019-06-27T11:13:16.914Z,102179.00
2019-06-27T11:15:45.205Z,102172.49
2019-06-27T11:18:13.500Z,102171.89
2019-06-27T11:20:41.768Z,102171.36
2019-06-27T11:23:10.056Z,102172.87
2019-06-27T11:25:38.348Z,102172.31
2019-06-27T11:28:09.271Z,102176.28
2019-06-27T11:30:36.630Z,102173.61
2019-06-27T11:33:04.903Z,102173.86
2019-06-27T11:35:33.166Z,102176.78
2019-06-27T11:38:01.461Z,102179.30
2019-06-27T11:40:29.829Z,102167.33
2019-06-27T11:42:58.112Z,102174.37
2019-06-27T11:45:26.449Z,102164.94
2019-06-27T11:47:54.715Z,102169.19
2019-06-27T11:50:22.992Z,102170.23
2019-06-27T11:52:51.270Z,102163.56
2019-06-27T11:55:19.544Z,102169.73
2019-06-27T11:57:47.817Z,102161.66
2019-06-27T12:00:56.110Z,102160.94
2019-06-27T12:03:24.379Z,102154.77
2019-06-27T12:05:52.647Z,102162.18
2019-06-27T12:08:20.956Z,102156.18
2019-06-27T12:10:49.197Z,102150.14
2019-06-27T12:13:17.465Z,102156.94
2019-06-27T12:15:45.751Z,102147.16
2019-06-27T12:18:14.031Z,102146.57
2019-06-27T12:20:42.641Z,102149.78
2019-06-27T12:23:10.931Z,102143.68
2019-06-27T12:25:39.217Z,102139.73
2019-06-27T12:28:07.503Z,102152.02
2019-06-27T12:30:35.776Z,102143.95
2019-06-27T12:33:04.053Z,102141.10
2019-06-27T12:35:32.326Z,102141.44
2019-06-27T12:38:00.620Z,102141.38
2019-06-27T12:40:28.905Z,102132.39
2019-06-27T12:42:57.181Z,102132.55
2019-06-27T12:46:05.505Z,102131.95
2019-06-27T12:48:36.913Z,102132.87
2019-06-27T12:51:03.863Z,102133.09
2019-06-27T12:53:32.134Z,102128.63
2019-06-27T12:56:00.402Z,102132.31
2019-06-27T12:58:28.673Z,102124.44
2019-06-27T13:00:56.963Z,102118.77
2019-06-27T13:03:25.239Z,102115.70
2019-06-27T13:05:53.527Z,102129.27
2019-06-27T13:08:21.789Z,102115.83
2019-06-27T13:10:50.087Z,102122.83
2019-06-27T13:13:18.342Z,102131.23
2019-06-27T13:15:46.685Z,102127.05
2019-06-27T13:18:14.970Z,102133.08
2019-06-27T13:20:57.418Z,102123.42
2019-06-27T13:23:13.257Z,102129.89
2019-06-27T13:25:41.513Z,102122.75
2019-06-27T13:28:09.790Z,102135.06
2019-06-27T13:30:38.063Z,102127.78
2019-06-27T13:33:06.349Z,102133.50
2019-06-27T13:35:34.609Z,102130.63
2019-06-27T13:38:02.892Z,102127.98
2019-06-27T13:40:31.159Z,102122.38
2019-06-27T13:42:59.457Z,102131.45
2019-06-27T13:45:27.741Z,102131.23
2019-06-27T13:47:56.020Z,102135.25
2019-06-27T13:50:24.292Z,102120.23
2019-06-27T13:52:54.771Z,102119.48
2019-06-27T13:55:24.201Z,102123.86
2019-06-27T13:57:52.614Z,102121.84
2019-06-27T14:01:00.870Z,102117.44
2019-06-27T14:03:29.148Z,102110.52
2019-06-27T14:05:57.437Z,102117.04
2019-06-27T14:08:26.382Z,102122.98
2019-06-27T14:10:55.710Z,102120.49
2019-06-27T14:13:23.989Z,102121.36
2019-06-27T14:15:52.255Z,102117.84
2019-06-27T14:18:20.545Z,102110.56
2019-06-27T14:20:48.812Z,102121.37
2019-06-27T14:23:17.083Z,102105.97
2019-06-27T14:25:45.363Z,102105.38
2019-06-27T14:28:13.635Z,102106.81
2019-06-27T14:30:41.935Z,102112.55
2019-06-27T14:33:10.207Z,102113.52
2019-06-27T14:35:38.485Z,102106.22
2019-06-27T14:38:06.759Z,102102.15
2019-06-27T14:40:35.023Z,102106.88
2019-06-27T14:43:03.310Z,102114.87
2019-06-27T14:45:31.568Z,102116.73
2019-06-27T14:47:59.861Z,102110.40
2019-06-27T14:50:28.138Z,102121.03
2019-06-27T14:52:56.404Z,102113.59
2019-06-27T14:55:24.698Z,102110.30
2019-06-27T14:57:52.956Z,102111.52
2019-06-27T15:00:21.488Z,102107.28
2019-06-27T15:02:49.758Z,102109.11
2019-06-27T15:05:32.058Z,102097.86
2019-06-27T15:07:48.053Z,102096.73
2019-06-27T15:10:35.860Z,102090.83
2019-06-27T15:13:04.154Z,102101.59
2019-06-27T15:15:32.423Z,102104.08
2019-06-27T15:18:00.702Z,102099.24
2019-06-27T15:20:28.992Z,102095.92
2019-06-27T15:22:57.318Z,102104.78
2019-06-27T15:25:28.281Z,102106.34
2019-06-27T15:27:55.648Z,102098.19
2019-06-27T15:30:23.930Z,102098.66
2019-06-27T15:32:52.424Z,102094.50
2019-06-27T15:35:20.720Z,102100.45
2019-06-27T15:37:49.022Z,102099.89
2019-06-27T15:40:17.464Z,102100.32
2019-06-27T15:42:45.750Z,102094.22
2019-06-27T15:48:15.664Z,102095.00
2019-06-27T15:50:43.938Z,102092.14
2019-06-27T15:53:12.233Z,102099.43
2019-06-27T15:55:40.497Z,102095.03
2019-06-27T15:58:08.765Z,102097.33
2019-06-27T16:00:39.270Z,102097.53
2019-06-27T16:03:07.074Z,102100.47
2019-06-27T16:05:36.118Z,102099.00
2019-06-27T16:08:04.411Z,102089.11
2019-06-27T16:10:32.701Z,102091.78
2019-06-27T16:13:02.688Z,102091.00
2019-06-27T16:15:30.955Z,102082.50
2019-06-27T16:17:59.254Z,102085.80
2019-06-27T16:20:27.598Z,102085.52
2019-06-27T16:22:55.882Z,102086.24
2019-06-27T16:25:24.165Z,102080.28
2019-06-27T16:27:52.431Z,102081.66
2019-06-27T16:30:20.886Z,102086.77
2019-06-27T16:32:49.186Z,102081.13
2019-06-27T16:35:17.466Z,102088.89
2019-06-27T16:37:45.742Z,102083.59
2019-06-27T16:40:14.087Z,102081.33
2019-06-27T16:42:42.354Z,102079.28
2019-06-27T16:45:50.648Z,102085.51
2019-06-27T16:48:18.917Z,102083.81
2019-06-27T16:50:47.187Z,102093.74
2019-06-27T16:53:15.457Z,102087.37
2019-06-27T16:55:43.740Z,102097.22
2019-06-27T16:58:12.024Z,102090.46
2019-06-27T17:00:40.297Z,102091.63
2019-06-27T17:03:08.584Z,102096.08
2019-06-27T17:05:36.850Z,102102.91
2019-06-27T17:08:05.227Z,102100.44
2019-06-27T17:10:33.486Z,102101.23
2019-06-27T17:13:01.808Z,102107.82
2019-06-27T17:15:30.037Z,102105.37
2019-06-27T17:17:58.301Z,102102.44
2019-06-27T17:20:26.563Z,102097.64
2019-06-27T17:22:54.914Z,102102.91
2019-06-27T17:25:24.315Z,102105.06
2019-06-27T17:27:52.610Z,102107.23
2019-06-27T17:30:21.100Z,102108.37
2019-06-27T17:32:49.424Z,102097.89
2019-06-27T17:35:17.710Z,102100.16
2019-06-27T17:37:46.018Z,102099.48
2019-06-27T17:40:54.285Z,102102.33
2019-06-27T17:43:22.561Z,102095.35
2019-06-27T17:45:50.848Z,102093.73
2019-06-27T17:48:19.133Z,102098.42
2019-06-27T17:50:47.436Z,102101.13
2019-06-27T17:53:15.713Z,102098.10
2019-06-27T17:55:43.986Z,102090.36
2019-06-27T17:58:12.276Z,102092.27
2019-06-27T18:00:59.894Z,102101.81
2019-06-27T18:03:28.164Z,102101.81
2019-06-27T18:05:56.441Z,102102.48
2019-06-27T18:08:24.712Z,102101.06
2019-06-27T18:10:53.020Z,102102.92
2019-06-27T18:13:24.033Z,102106.00
2019-06-27T18:15:51.307Z,102100.63
2019-06-27T18:18:19.617Z,102099.63
2019-06-27T18:20:47.893Z,102098.93
2019-06-27T18:23:16.333Z,102097.14
2019-06-27T18:25:44.610Z,102104.17
2019-06-27T18:28:12.898Z,102104.09
2019-06-27T18:30:41.163Z,102103.47
2019-06-27T18:33:09.449Z,102108.23
2019-06-27T18:35:37.735Z,102106.87
2019-06-27T18:38:06.088Z,102103.59
2019-06-27T18:40:34.354Z,102108.23
2019-06-27T18:43:02.636Z,102104.19
2019-06-27T18:45:30.924Z,102102.30
2019-06-27T18:47:59.255Z,102104.56
2019-06-27T18:50:27.549Z,102102.56
2019-06-27T18:52:55.829Z,102103.36
2019-06-27T18:55:24.088Z,102095.91
2019-06-27T18:57:52.415Z,102101.26
2019-06-27T19:01:00.700Z,102107.04
2019-06-27T19:03:28.962Z,102109.06
2019-06-27T19:05:57.246Z,102104.88
2019-06-27T19:08:25.531Z,102109.38
2019-06-27T19:10:53.795Z,102108.37
2019-06-27T19:13:22.071Z,102104.88
2019-06-27T19:15:50.355Z,102108.81
2019-06-27T19:18:37.757Z,102109.06
2019-06-27T19:26:23.947Z,102112.81
2019-06-27T19:28:52.464Z,102115.86
2019-06-27T19:31:20.755Z,102110.59
2019-06-27T19:33:49.026Z,102111.87
2019-06-27T19:36:17.291Z,102122.30
2019-06-27T19:38:45.581Z,102120.34
2019-06-27T19:41:13.859Z,102120.91
2019-06-27T19:43:42.801Z,102124.63
2019-06-27T19:46:11.083Z,102126.06
2019-06-27T19:48:39.372Z,102127.32
2019-06-27T19:51:07.647Z,102125.05
2019-06-27T19:53:35.921Z,102125.70
2019-06-27T19:56:04.201Z,102119.05
2019-06-27T19:58:32.477Z,102125.45
2019-06-27T20:01:00.771Z,102123.61
2019-06-27T20:03:29.039Z,102132.61
2019-06-27T20:05:57.324Z,102130.73
2019-06-27T20:08:25.617Z,102132.67
2019-06-27T20:10:53.862Z,102125.22
2019-06-27T20:13:22.151Z,102136.46
2019-06-27T20:15:50.429Z,102130.89
2019-06-27T20:18:18.707Z,102131.07
2019-06-27T20:20:46.972Z,102140.05
2019-06-27T20:23:15.249Z,102142.98
2019-06-27T20:25:43.522Z,102148.60
2019-06-27T20:28:11.811Z,102144.48
2019-06-27T20:30:40.083Z,102142.92
2019-06-27T20:33:08.367Z,102143.23
2019-06-27T20:35:55.999Z,102147.20
2019-06-27T20:38:34.460Z,102147.20
2019-06-27T20:40:54.277Z,102148.07
2019-06-27T20:43:22.542Z,102147.61
2019-06-27T20:45:50.818Z,102146.34
2019-06-27T20:48:19.086Z,102140.14
2019-06-27T20:50:47.352Z,102146.03
2019-06-27T20:53:15.677Z,102149.97
2019-06-27T20:55:43.902Z,102148.07
2019-06-27T20:58:12.184Z,102146.67
2019-06-27T21:00:40.451Z,102144.78
2019-06-27T21:03:08.737Z,102149.20
2019-06-27T21:05:37.040Z,102141.76
2019-06-27T21:08:05.277Z,102138.92
2019-06-27T21:10:33.570Z,102139.58
2019-06-27T21:13:01.851Z,102134.78
2019-06-27T21:15:30.166Z,102141.39
2019-06-27T21:17:58.436Z,102137.53
2019-06-27T21:20:26.707Z,102140.55
2019-06-27T21:22:55.158Z,102141.20
2019-06-27T21:25:23.442Z,102139.78
2019-06-27T21:27:51.717Z,102137.79
2019-06-27T21:30:20.057Z,102142.89
2019-06-27T21:32:48.690Z,102152.64
2019-06-27T21:35:18.329Z,102142.09
2019-06-27T21:37:46.611Z,102145.91
2019-06-27T21:40:54.928Z,102142.95
2019-06-27T21:43:23.209Z,102143.85
2019-06-27T21:45:51.472Z,102151.02
2019-06-27T21:48:19.737Z,102150.78
2019-06-27T21:50:48.003Z,102155.75
2019-06-27T21:53:16.260Z,102149.69
2019-06-27T21:55:44.540Z,102135.52
2019-06-27T21:58:12.815Z,102144.52
2019-06-27T22:03:20.066Z,102139.02
2019-06-27T22:05:48.347Z,102138.91
2019-06-27T22:08:16.630Z,102140.62
2019-06-27T22:10:44.896Z,102144.11
2019-06-27T22:13:14.004Z,102143.05
2019-06-27T22:15:42.518Z,102146.20
2019-06-27T22:18:10.790Z,102144.91
2019-06-27T22:20:39.763Z,102138.70
2019-06-27T22:23:09.063Z,102138.55
2019-06-27T22:25:40.823Z,102133.73
2019-06-27T22:28:07.332Z,102126.30
2019-06-27T22:30:35.616Z,102130.58
2019-06-27T22:33:03.887Z,102128.80
2019-06-27T22:35:32.200Z,102131.41
2019-06-27T22:38:19.575Z,102130.89
2019-06-27T22:41:06.974Z,102127.72
2019-06-27T22:44:03.052Z,102125.23
2019-06-27T22:46:50.463Z,102128.70
2019-06-27T22:49:18.104Z,102132.50
2019-06-27T22:57:14.289Z,102121.16
2019-06-27T22:59:42.573Z,102124.42
2019-06-27T23:02:10.830Z,102128.02
2019-06-27T23:04:39.110Z,102126.16
2019-06-27T23:07:07.379Z,102122.36
2019-06-27T23:09:35.653Z,102117.17
2019-06-27T23:12:03.920Z,102125.15
2019-06-27T23:14:32.194Z,102124.98
2019-06-27T23:17:00.466Z,102118.88
2019-06-27T23:19:28.738Z,102114.89
2019-06-27T23:21:57.009Z,102113.84
2019-06-27T23:24:25.284Z,102113.38
2019-06-27T23:26:53.560Z,102119.41
2019-06-27T23:29:21.835Z,102123.53
2019-06-27T23:31:50.105Z,102119.80
2019-06-27T23:34:18.376Z,102127.16
2019-06-27T23:36:46.728Z,102125.31
2019-06-27T23:39:15.002Z,102127.16
2019-06-27T23:41:43.268Z,102128.63
2019-06-27T23:44:11.542Z,102132.34
2019-06-27T23:46:58.926Z,102125.05
2019-06-27T23:49:27.211Z,102126.85
2019-06-27T23:51:55.500Z,102128.46
2019-06-27T23:54:23.769Z,102125.63
2019-06-27T23:56:52.034Z,102123.43
2019-06-27T23:59:20.363Z,102122.11
